Pagrindinis puslapis
METAR-TAF:

METAR-TAF

Oro uostai :

Stord, Norvegija

platuma: 59-48N, ilguma: 005-21E, Aukštis: 49 m

Dabartinis oras

Ataskaita buvo paskelbta 1 valandą ir 10 minutes, ne 17:20 UTC
Vėjas 11 kt iš Šiaurės
Temperatūra 10°C
Drėgmė 82%
Slėgis 997 hPa
Matomumas 10 km arba daugiau
nėra debesų žemiau 1500 m ir nėra kamuolinių lietaus debesų

METAR: ENSO 231720Z 35011KT CAVOK 10/07 Q0997

Laikas: 20:30 (18:30 UTC)

Prognozė

Ataskaita buvo paskelbta 4 valandos ir 30 minutes, ne 14:00 UTC
Prognozė galioja nuo 23 metu 15 UTC su 23 metu 18 UTC
Vėjas 8 kt iš Šiaurės
Matomumas 10 km arba daugiau
Mažai debesys ne aukštis 2000 ft
Išsisklaidę debesys ne aukštis 15000 ft

TAF: ENSO 231400Z 2315/2318 36008KT 9999 FEW020 SCT150

Orai ataskaitas ir orų prognozės (METAR, TAF).

turimą stotys yra geltonos ir raudonos taškus žemėlapyje.

Perkelti pele per norėdami pamatyti stoties vardą.

Tada spustelėkite, norėdami matyti oro stebėjimo ir prognozės.

Norėdami pakeisti žemėlapį: spustelėkite ant žalios mygtukų su juodo kryžiaus žemyn,; žalią mygtuką su brūkšneliu, jei norite nutolinti; arba žalių rodyklių gretimoms žemėlapius.


METAR-TAF: